Airfield :
LOGIN :

Register | Disclaimer

   EN    FR    IT 

 










Legend :    VFR   Marginal VFR   IFR   Intensive IFR   Very Intensive IFR
Visi :
Ceiling :
>= 8 km
>= 3000ft
5 to 8 km
1000 to 3000 ft
1500m to 5 km
500 to 1000 ft
800 to 1500m
200 to 500 ft
< 800m
< 200 ft
Symbols :   Thunderstorms  Fog  Heavy snow  Heavy precipitations  Wind > 20 kt
SIGMETs :     Misc.  Thunderstorms  Icing  Turbulence  Mountain Waves  Volcanic Ashes







- Airport Elevation : 80 ft
- IATA code : LPL
- Download approach charts


EGGP - Liverpool John Lennon

CURRENT METAR :
  • 161350Z 29008KT 9999 FEW033 17/10 Q1023

EXPIRED METARs :
  • 161320Z 29008KT 9999 FEW034 16/10 Q1023
  • 161250Z 31009KT 9999 SCT032 16/10 Q1023
  • 161220Z 33008KT 300V010 9999 SCT031 16/11 Q1023
  • 161150Z 33007KT 290V360 9999 BKN030 16/10 Q1023
  • 161120Z 32006KT 290V030 9999 FEW028 SCT034 16/10 Q1023

TAF TAF EGGP
Valid from the 16 at 12:00 until the 17 at 12:00 UTC


161104Z 1612/1712 35007KT 9999 FEW035
ATIS : +44 151 907 2000 (option 5 or ext 5150)
Met : +44 871 750 5150
No reported NOTAMs for that airfield.



MET'MAP, your aeronautical weather chart ! - Copyright ORBIFLY December 2007 - Disclaimer

ORBIFLY MET'MAP TEAM :

Programming & Development : Alexandra Zaïnal
Concept & Development : Baudouin d'Aumeries
Co-Development & Prog : Marc-Olivier Méhu
Technical & hardware support : Manuel Goepfert

Contact : metmap@orbifly.com




SOURCES & CREDITS :

   NOAA